Time;durP1;ratioP1;P1;durP2;ratioP2;P2;SDS_P1;SDS_P2;PMS_P1;PMS_P2;Temp;Humidity;BMP_temperature;BMP_pressure;BME280_temperature;BME280_humidity;BME280_pressure;Samples;Min_cycle;Max_cycle;Signal;HPM_P1;HPM_P2
2023/09/08 00:00:51;;;;;;;19.08;12.13;;;;;;;13.58;81.51;95981.50;6195855;28;20045;-69
2023/09/08 00:03:59;;;;;;;17.35;12.45;;;;;;;13.67;81.56;95993.88;6196880;28;20054;-69
2023/09/08 00:07:01;;;;;;;19.27;10.48;;;;;;;13.69;81.59;95984.00;6212850;28;20053;-70
2023/09/08 00:10:05;;;;;;;18.40;11.88;;;;;;;13.68;81.52;95987.63;6219690;28;20042;-69
2023/09/08 00:13:14;;;;;;;19.02;11.75;;;;;;;13.72;81.64;95988.19;6220657;28;20073;-69
2023/09/08 00:16:24;;;;;;;13.90;9.55;;;;;;;13.70;81.44;95996.25;6203908;28;20038;-69
2023/09/08 00:19:27;;;;;;;13.02;9.73;;;;;;;13.67;81.45;95980.66;6203052;28;20464;-69
2023/09/08 00:22:35;;;;;;;12.13;8.27;;;;;;;13.67;81.60;95978.03;6220440;28;20037;-69
2023/09/08 00:25:40;;;;;;;15.93;8.85;;;;;;;13.70;81.89;95964.53;6220238;28;20127;-69
2023/09/08 00:28:50;;;;;;;11.23;7.57;;;;;;;13.69;82.03;95965.50;6220673;28;20053;-69
2023/09/08 00:31:51;;;;;;;12.27;9.88;;;;;;;13.69;82.11;95954.94;6201679;28;20061;-69
2023/09/08 00:34:55;;;;;;;12.35;8.23;;;;;;;13.71;82.46;95955.63;6220464;28;20044;-69
2023/09/08 00:38:02;;;;;;;10.13;7.68;;;;;;;13.68;82.48;95958.56;6219672;28;20050;-69
2023/09/08 00:41:05;;;;;;;9.80;7.38;;;;;;;13.68;82.63;95955.91;6220336;28;20038;-70
2023/09/08 00:44:11;;;;;;;;;;;;;;;13.62;82.85;95945.91;6220052;28;20041;-69
2023/09/08 00:47:12;;;;;;;9.35;6.80;;;;;;;13.61;82.36;95941.56;6220160;28;19932;-69
2023/09/08 00:50:17;;;;;;;7.40;6.20;;;;;;;13.54;82.01;95948.41;6220402;28;20049;-69
2023/09/08 00:53:18;;;;;;;8.77;5.97;;;;;;;13.45;81.96;95950.94;6220292;28;20042;-69
2023/09/08 00:56:23;;;;;;;12.13;6.82;;;;;;;13.41;82.21;95943.41;6202770;28;20395;-70
2023/09/08 00:59:25;;;;;;;7.90;6.68;;;;;;;13.39;82.18;95940.91;6219051;28;20434;-68
2023/09/08 01:02:29;;;;;;;7.20;6.28;;;;;;;13.36;82.32;95935.91;6202454;28;20054;-70
2023/09/08 01:05:31;;;;;;;;;;;;;;;13.32;82.58;95939.78;6220302;28;20507;-70
2023/09/08 01:08:37;;;;;;;7.25;5.63;;;;;;;13.35;82.35;95939.50;6220069;28;19921;-70
2023/09/08 01:11:39;;;;;;;;;;;;;;;13.31;82.60;95937.31;6220325;28;20524;-69
2023/09/08 01:14:43;;;;;;;7.43;5.97;;;;;;;13.30;82.34;95938.25;6219885;28;20075;-70
2023/09/08 01:17:44;;;;;;;7.45;5.60;;;;;;;13.28;82.40;95927.03;6219896;28;20046;-70
2023/09/08 01:21:05;;;;;;;8.10;6.38;;;;;;;13.33;82.20;95935.34;6218965;28;20095;-70
2023/09/08 01:24:29;;;;;;;8.40;6.25;;;;;;;13.35;81.87;95934.22;6204997;28;20171;-69
2023/09/08 01:27:35;;;;;;;8.93;6.95;;;;;;;13.28;82.02;95933.13;6222115;28;20046;-69
2023/09/08 01:30:41;;;;;;;7.40;5.70;;;;;;;13.23;82.46;95919.47;6205378;28;20054;-69
2023/09/08 01:33:51;;;;;;;8.02;7.22;;;;;;;13.31;82.30;95924.94;6224123;28;20505;-69
2023/09/08 01:36:59;;;;;;;7.45;6.10;;;;;;;13.10;82.16;95892.50;6224608;28;20050;-69
2023/09/08 01:40:06;;;;;;;7.38;6.53;;;;;;;13.21;82.29;95906.38;6207532;28;20042;-69
2023/09/08 01:43:10;;;;;;;7.22;6.03;;;;;;;13.30;81.95;95925.88;6224411;28;20041;-69
2023/09/08 01:46:13;;;;;;;6.45;5.53;;;;;;;13.30;82.13;95925.06;6224048;28;20065;-69
2023/09/08 01:49:15;;;;;;;7.35;5.63;;;;;;;13.26;81.97;95919.22;6223466;28;20054;-69
2023/09/08 01:52:16;;;;;;;5.95;5.35;;;;;;;13.31;82.33;95921.44;6223238;28;20057;-69
2023/09/08 01:55:20;;;;;;;;;;;;;;;13.30;82.70;95925.88;6224178;28;20045;-69
2023/09/08 01:58:30;;;;;;;5.80;4.47;;;;;;;13.32;82.10;95923.94;6223846;28;19928;-69
2023/09/08 02:01:37;;;;;;;8.32;6.07;;;;;;;13.31;81.93;95921.44;6223742;28;20513;-69
2023/09/08 02:04:40;;;;;;;8.38;5.55;;;;;;;13.36;81.68;95920.06;6222740;28;20046;-69
2023/09/08 02:07:41;;;;;;;;;;;;;;;13.36;82.31;95914.78;6205667;28;20058;-69
2023/09/08 02:10:43;;;;;;;6.15;5.18;;;;;;;13.39;81.99;95919.78;6223796;28;19921;-69
2023/09/08 02:13:48;;;;;;;7.75;5.55;;;;;;;13.36;81.93;95901.56;6223502;28;20058;-69
2023/09/08 02:16:49;;;;;;;6.93;6.18;;;;;;;13.49;82.06;95914.47;6222886;28;20049;-70
2023/09/08 02:19:53;;;;;;;6.82;6.00;;;;;;;13.59;82.19;95914.47;6222634;28;20049;-68
2023/09/08 02:22:55;;;;;;;7.97;5.20;;;;;;;13.62;81.91;95922.13;6222908;28;20056;-70
2023/09/08 02:25:57;;;;;;;5.75;4.90;;;;;;;13.70;81.74;95928.38;6222209;28;20049;-70
2023/09/08 02:28:59;;;;;;;6.85;5.20;;;;;;;13.75;81.52;95914.69;6222773;28;20054;-68
2023/09/08 02:32:03;;;;;;;6.13;5.50;;;;;;;13.79;81.45;95923.22;6222037;28;20054;-68
2023/09/08 02:35:07;;;;;;;5.95;5.35;;;;;;;13.90;80.93;95929.16;6222979;28;20049;-68
2023/09/08 02:38:08;;;;;;;6.63;5.55;;;;;;;13.95;80.53;95919.94;6222163;28;20421;-68
2023/09/08 02:41:12;;;;;;;17.95;11.93;;;;;;;14.04;80.31;95925.22;6222061;28;20421;-70
2023/09/08 02:44:16;;;;;;;20.55;14.10;;;;;;;14.12;80.03;95914.72;6222931;28;20045;-70
2023/09/08 02:47:20;;;;;;;15.52;10.60;;;;;;;14.20;79.66;95919.31;6222861;28;20046;-68
2023/09/08 02:50:23;;;;;;;12.77;8.30;;;;;;;14.29;79.59;95907.84;6221903;28;20046;-68
2023/09/08 02:53:28;;;;;;;7.53;6.05;;;;;;;14.28;79.21;95911.47;6221929;28;20525;-70
2023/09/08 02:56:29;;;;;;;7.43;5.82;;;;;;;14.33;78.76;95914.53;6222575;28;20049;-68
2023/09/08 02:59:36;;;;;;;5.15;4.55;;;;;;;14.33;78.81;95919.81;6204239;28;20049;-70
2023/09/08 03:02:41;;;;;;;6.88;5.20;;;;;;;14.34;78.48;95921.47;6222233;28;20041;-70
2023/09/08 03:05:45;;;;;;;5.55;4.82;;;;;;;14.41;77.83;95934.13;6221731;28;20061;-68
2023/09/08 03:08:49;;;;;;;7.78;4.82;;;;;;;14.33;77.65;95930.41;6222277;28;20050;-70
2023/09/08 03:11:55;;;;;;;;;;;;;;;14.40;77.02;95930.63;6222578;28;20432;-70
2023/09/08 03:14:56;;;;;;;5.75;4.82;;;;;;;14.43;76.60;95934.81;6221244;28;19928;-70
2023/09/08 03:17:58;;;;;;;6.47;5.22;;;;;;;14.43;76.40;95940.09;6220889;28;20050;-70
2023/09/08 03:21:08;;;;;;;5.47;4.88;;;;;;;14.40;76.43;95940.41;6221861;28;20576;-68
2023/09/08 03:24:11;;;;;;;5.57;4.60;;;;;;;14.34;76.78;95947.94;6221894;28;20413;-68
2023/09/08 03:27:17;;;;;;;7.88;4.75;;;;;;;14.37;76.51;95947.66;6221689;28;20046;-68
2023/09/08 03:30:23;;;;;;;6.30;4.93;;;;;;;14.34;76.59;95950.59;6221628;28;20049;-69
2023/09/08 03:33:26;;;;;;;;;;;;;;;14.46;75.92;95955.69;6220108;28;20041;-68
2023/09/08 03:36:28;;;;;;;4.80;4.15;;;;;;;14.41;76.13;95955.28;6220497;28;19965;-68
2023/09/08 03:39:30;;;;;;;6.43;4.65;;;;;;;14.55;75.56;95952.19;6221375;28;20038;-69
2023/09/08 03:42:32;;;;;;;5.05;4.40;;;;;;;14.60;75.36;95963.19;6221120;28;20069;-69
2023/09/08 03:45:33;;;;;;;6.28;4.60;;;;;;;14.63;74.92;95962.06;6220882;28;20057;-70
2023/09/08 03:48:37;;;;;;;;;;;;;;;14.55;75.05;95965.44;6221682;28;20325;-68
2023/09/08 03:51:41;;;;;;;6.75;5.05;;;;;;;14.64;74.79;95969.88;6204043;28;20008;-68
2023/09/08 03:54:46;;;;;;;4.78;4.28;;;;;;;14.40;75.24;95961.56;6220369;28;20062;-69
2023/09/08 03:57:48;;;;;;;5.40;4.90;;;;;;;14.49;74.94;95971.28;6220758;28;20053;-69
2023/09/08 04:00:49;;;;;;;6.75;5.57;;;;;;;14.37;75.38;95984.69;6220414;28;20131;-69
2023/09/08 04:03:56;;;;;;;7.75;4.78;;;;;;;14.28;76.00;95980.28;6220799;28;20456;-68
2023/09/08 04:06:57;;;;;;;5.65;4.85;;;;;;;14.15;76.51;95979.75;6220254;28;20533;-69
2023/09/08 04:10:02;;;;;;;6.50;5.63;;;;;;;14.31;76.15;95985.28;6220305;28;20065;-69
2023/09/08 04:13:05;;;;;;;6.68;5.35;;;;;;;14.30;76.14;95982.78;6220502;28;20425;-70
2023/09/08 04:16:15;;;;;;;7.05;6.10;;;;;;;14.22;76.66;95978.22;6220757;28;20041;-70
2023/09/08 04:19:19;;;;;;;7.43;5.45;;;;;;;14.09;77.24;95977.69;6220816;28;20309;-71
2023/09/08 04:22:22;;;;;;;6.88;5.45;;;;;;;14.12;76.95;95974.75;6222593;28;20211;-70
2023/09/08 04:25:26;;;;;;;7.68;5.60;;;;;;;14.08;77.24;95963.63;6223072;28;20045;-70
2023/09/08 04:28:30;;;;;;;7.15;4.97;;;;;;;14.06;77.77;95948.88;6220276;28;20105;-70
2023/09/08 04:31:34;;;;;;;6.75;5.05;;;;;;;14.18;77.56;95963.59;6220403;28;20045;-70
2023/09/08 04:34:42;;;;;;;7.25;5.30;;;;;;;14.30;77.84;95951.03;6220178;28;20050;-70
2023/09/08 04:37:51;;;;;;;8.23;5.35;;;;;;;14.49;77.68;95960.69;6220497;28;20046;-68
2023/09/08 04:40:54;;;;;;;7.10;5.60;;;;;;;14.64;76.09;95959.28;6220261;28;20049;-69
2023/09/08 04:43:59;;;;;;;8.52;4.82;;;;;;;14.65;75.90;95960.09;6219446;28;20042;-69
2023/09/08 04:47:00;;;;;;;8.02;5.75;;;;;;;14.58;76.17;95959.88;6219331;28;20042;-69
2023/09/08 04:50:07;;;;;;;7.22;5.60;;;;;;;14.66;75.73;95962.59;6219814;28;20058;-69
2023/09/08 04:53:12;;;;;;;7.13;5.88;;;;;;;14.67;75.56;95968.75;6219303;28;20053;-69
2023/09/08 04:56:16;;;;;;;8.40;5.78;;;;;;;14.58;76.19;95965.16;6219021;28;20046;-69
2023/09/08 04:59:17;;;;;;;7.53;5.20;;;;;;;14.57;75.92;95974.06;6219483;28;20057;-69
2023/09/08 05:02:21;;;;;;;;;;;;;;;14.77;75.73;95970.34;6220765;28;20046;-69
2023/09/08 05:05:24;;;;;;;6.53;5.05;;;;;;;14.54;76.13;95974.34;6219210;28;19921;-69
2023/09/08 05:08:28;;;;;;;6.70;5.57;;;;;;;14.64;76.18;95979.63;6219647;28;20045;-68
2023/09/08 05:11:32;;;;;;;;;;;;;;;14.87;75.14;95995.97;6220216;28;20497;-68
2023/09/08 05:14:33;;;;;;;7.82;5.60;;;;;;;14.63;76.25;95989.38;6218759;28;19917;-68
2023/09/08 05:17:35;;;;;;;9.05;5.53;;;;;;;14.64;76.14;95995.53;6219071;28;20084;-68
2023/09/08 05:20:36;;;;;;;6.57;5.22;;;;;;;14.58;76.51;95989.00;6219331;28;20076;-69
2023/09/08 05:23:38;;;;;;;7.00;5.22;;;;;;;14.43;77.24;95993.88;6218930;28;20060;-69
2023/09/08 05:26:45;;;;;;;6.38;5.45;;;;;;;14.42;77.63;95996.69;6219545;28;20212;-69
2023/09/08 05:29:49;;;;;;;5.40;4.82;;;;;;;14.35;77.65;95997.25;6219692;28;20505;-69
2023/09/08 05:32:56;;;;;;;5.38;4.40;;;;;;;14.17;78.29;95983.09;6193744;28;20422;-69
2023/09/08 05:36:01;;;;;;;6.68;5.00;;;;;;;14.01;79.27;95999.56;6195191;28;20058;-69
2023/09/08 05:39:02;;;;;;;5.65;4.50;;;;;;;13.87;79.96;95992.91;6195063;28;20054;-69
2023/09/08 05:42:04;;;;;;;7.30;5.43;;;;;;;13.90;80.48;95994.44;6193302;28;20417;-69
2023/09/08 05:45:06;;;;;;;5.47;4.95;;;;;;;13.82;80.90;95987.22;6194523;28;20138;-71
2023/09/08 05:48:09;;;;;;;5.38;4.28;;;;;;;13.65;81.77;95987.91;6195308;28;20054;-69
2023/09/08 05:51:15;;;;;;;6.05;4.82;;;;;;;13.90;81.36;95997.91;6194883;28;20065;-69
2023/09/08 05:54:21;;;;;;;7.03;4.72;;;;;;;13.68;82.46;95987.63;6195257;28;20046;-69
2023/09/08 05:57:26;;;;;;;4.85;4.43;;;;;;;13.72;83.16;95982.91;6195044;28;20051;-70
2023/09/08 06:00:30;;;;;;;6.82;4.80;;;;;;;13.93;82.39;95981.75;6194634;28;20188;-69
2023/09/08 06:03:35;;;;;;;6.25;5.10;;;;;;;13.89;82.70;95972.44;6194985;28;20066;-71
2023/09/08 06:06:36;;;;;;;6.50;4.72;;;;;;;13.96;83.02;95985.09;6193269;28;20422;-70
2023/09/08 06:09:40;;;;;;;6.45;4.90;;;;;;;13.89;83.24;95971.59;6194335;28;20065;-69
2023/09/08 06:12:43;;;;;;;7.95;5.18;;;;;;;13.96;83.30;95970.06;6194933;28;20042;-69
2023/09/08 06:15:44;;;;;;;9.13;4.83;;;;;;;14.01;83.59;95964.34;6194293;28;20062;-69
2023/09/08 06:18:49;;;;;;;7.78;4.85;;;;;;;14.10;83.42;95955.56;6198716;28;20050;-69
2023/09/08 06:21:55;;;;;;;6.22;4.55;;;;;;;14.15;83.70;95963.88;6199444;28;20070;-69
2023/09/08 06:25:00;;;;;;;6.38;4.90;;;;;;;14.14;82.97;95962.22;6198295;28;20046;-69
2023/09/08 06:28:01;;;;;;;5.85;4.32;;;;;;;14.14;83.38;95970.97;6198653;28;20065;-69
2023/09/08 06:31:04;;;;;;;5.30;4.60;;;;;;;14.27;83.73;95970.69;6198678;28;20418;-69
2023/09/08 06:34:11;;;;;;;5.03;4.18;;;;;;;14.31;82.43;95971.22;6217818;28;20069;-68
2023/09/08 06:37:15;;;;;;;5.32;4.65;;;;;;;14.23;82.97;95977.22;6224447;28;20092;-68
2023/09/08 06:40:19;;;;;;;4.57;3.70;;;;;;;14.26;83.05;95986.69;6223761;28;20042;-68
2023/09/08 06:43:22;;;;;;;;;;;;;;;14.55;81.99;95982.19;6223917;28;20042;-68
2023/09/08 06:46:26;;;;;;;5.82;4.13;;;;;;;14.38;82.18;95986.38;6223290;28;19947;-68
2023/09/08 06:49:33;;;;;;;4.72;3.13;;;;;;;14.52;81.29;95981.59;6223185;28;20045;-67
2023/09/08 06:52:35;;;;;;;3.97;3.38;;;;;;;14.51;80.59;95990.50;6222537;28;20049;-67
2023/09/08 06:55:42;;;;;;;3.13;2.78;;;;;;;14.52;81.00;95982.47;6222907;28;20505;-67
2023/09/08 06:58:49;;;;;;;3.47;3.13;;;;;;;14.76;80.73;95989.88;6222626;28;20054;-68
2023/09/08 07:01:53;;;;;;;3.70;3.22;;;;;;;14.90;79.74;95993.84;6222303;28;20058;-68
2023/09/08 07:04:56;;;;;;;;;;;;;;;15.07;80.13;95996.69;6221855;28;20056;-68
2023/09/08 07:08:00;;;;;;;3.22;2.63;;;;;;;15.16;79.28;95996.63;6222035;28;19921;-69
2023/09/08 07:11:04;;;;;;;4.43;3.30;;;;;;;15.31;78.41;95990.78;6222339;28;20046;-68
2023/09/08 07:14:09;;;;;;;4.57;3.47;;;;;;;15.25;77.28;95997.53;6221559;28;20046;-68
2023/09/08 07:17:10;;;;;;;3.78;2.88;;;;;;;15.12;76.96;95995.25;6221553;28;20054;-67
2023/09/08 07:20:14;;;;;;;3.25;2.90;;;;;;;14.96;77.75;95984.47;6221359;28;20426;-67
2023/09/08 07:23:21;;;;;;;3.25;2.83;;;;;;;14.95;77.99;96004.00;6222924;28;20045;-68
2023/09/08 07:26:27;;;;;;;4.13;3.10;;;;;;;14.88;78.70;96002.91;6222024;28;20046;-68
2023/09/08 07:29:31;;;;;;;3.53;3.08;;;;;;;14.97;78.69;96002.03;6221496;28;20050;-68
2023/09/08 07:32:35;;;;;;;4.25;3.47;;;;;;;14.95;78.56;95993.41;6221106;28;20049;-68
2023/09/08 07:35:42;;;;;;;3.92;2.75;;;;;;;15.07;77.90;96001.97;6221912;28;20038;-68
2023/09/08 07:38:49;;;;;;;3.65;3.10;;;;;;;14.96;78.23;95989.78;6221730;28;20038;-68
2023/09/08 07:41:56;;;;;;;4.72;3.20;;;;;;;15.17;76.80;95995.66;6222037;28;20045;-68
2023/09/08 07:44:58;;;;;;;4.05;3.28;;;;;;;14.99;77.13;95992.13;6220753;28;20060;-68
2023/09/08 07:47:59;;;;;;;4.03;3.15;;;;;;;14.87;77.58;95990.66;6220974;28;20053;-69
2023/09/08 07:51:03;;;;;;;3.92;3.53;;;;;;;14.87;77.82;96001.25;6220654;28;20049;-69
2023/09/08 07:54:05;;;;;;;4.03;3.67;;;;;;;14.88;78.08;96005.56;6220541;28;20046;-69
2023/09/08 07:57:09;;;;;;;4.47;3.30;;;;;;;14.92;78.07;95996.31;6220083;28;20417;-69
2023/09/08 08:00:11;;;;;;;4.13;3.72;;;;;;;15.11;76.73;95990.91;6220468;28;20064;-69
2023/09/08 08:03:13;;;;;;;4.07;3.50;;;;;;;14.95;77.12;95993.41;6220876;28;20441;-69
2023/09/08 08:06:17;;;;;;;4.80;3.33;;;;;;;14.63;78.39;95999.94;6220874;28;20050;-69
2023/09/08 08:09:21;;;;;;;6.25;4.45;;;;;;;14.67;78.43;96001.34;6220972;28;20045;-68
2023/09/08 08:12:25;;;;;;;3.97;3.67;;;;;;;14.54;79.49;95995.53;6220263;28;20050;-69
2023/09/08 08:15:38;;;;;;;5.60;4.20;;;;;;;14.45;80.13;95997.22;6220309;28;20061;-70
2023/09/08 08:18:45;;;;;;;5.75;4.00;;;;;;;14.32;80.87;96005.50;6218278;28;20046;-70
2023/09/08 08:21:47;;;;;;;4.95;4.30;;;;;;;14.28;81.15;95996.16;6217883;28;20509;-70
2023/09/08 08:24:50;;;;;;;4.65;3.85;;;;;;;14.21;81.82;95994.22;6219134;28;20054;-69
2023/09/08 08:27:52;;;;;;;16.23;4.90;;;;;;;14.05;83.04;95994.81;6202340;28;20137;-70
2023/09/08 08:30:59;;;;;;;4.53;3.83;;;;;;;14.05;83.70;95984.25;6220373;28;20038;-70
2023/09/08 08:34:02;;;;;;;4.10;3.55;;;;;;;13.99;83.93;95988.28;6194369;28;20124;-69
2023/09/08 08:37:04;;;;;;;5.70;4.30;;;;;;;14.06;84.28;95985.91;6195618;28;20597;-70
2023/09/08 08:40:06;;;;;;;5.43;4.07;;;;;;;14.03;84.47;95991.47;6194542;28;20054;-70
2023/09/08 08:43:11;;;;;;;4.78;4.28;;;;;;;14.02;84.10;95992.47;6195838;28;20042;-70
2023/09/08 08:46:21;;;;;;;5.43;4.25;;;;;;;13.87;84.59;96003.50;6196053;28;20046;-70
2023/09/08 08:49:23;;;;;;;5.30;4.45;;;;;;;13.97;84.23;96007.94;6195891;28;20062;-69
2023/09/08 08:52:29;;;;;;;5.13;4.43;;;;;;;13.86;84.82;96007.09;6195114;28;20430;-69
2023/09/08 08:55:34;;;;;;;5.13;4.47;;;;;;;13.95;84.26;96001.94;6195756;28;20050;-69
2023/09/08 08:58:39;;;;;;;4.80;4.25;;;;;;;13.97;84.70;96010.56;6195750;28;20078;-70
2023/09/08 09:01:48;;;;;;;4.82;3.83;;;;;;;14.05;84.53;96002.75;6195568;28;20494;-68
2023/09/08 09:04:51;;;;;;;4.88;3.83;;;;;;;14.08;84.85;96007.75;6195497;28;20530;-69
2023/09/08 09:07:54;;;;;;;3.93;3.50;;;;;;;14.09;84.80;96001.50;6195381;28;20046;-69
2023/09/08 09:11:01;;;;;;;7.18;4.47;;;;;;;14.30;83.99;96004.78;6195308;28;20058;-69
2023/09/08 09:14:04;;;;;;;5.75;4.95;;;;;;;14.08;84.66;95999.81;6195047;28;20062;-69
2023/09/08 09:17:10;;;;;;;5.32;3.83;;;;;;;14.01;84.16;96001.34;6195040;28;20050;-69
2023/09/08 09:20:20;;;;;;;6.07;4.30;;;;;;;13.83;85.21;95999.44;6195132;28;20478;-70
2023/09/08 09:23:32;;;;;;;4.07;3.67;;;;;;;13.92;85.75;96014.44;6194779;28;20054;-70
2023/09/08 09:26:36;;;;;;;4.47;4.00;;;;;;;13.98;85.79;96012.22;6195273;28;20106;-69
2023/09/08 09:29:58;;;;;;;8.98;4.20;;;;;;;14.02;86.00;96003.06;6195550;28;20050;-68
2023/09/08 09:33:05;;;;;;;6.43;4.55;;;;;;;14.00;86.26;96008.47;6205808;28;20053;-69
2023/09/08 09:36:20;;;;;;;5.28;4.78;;;;;;;14.06;85.37;96012.34;6219748;28;20038;-69
2023/09/08 09:39:26;;;;;;;3.85;3.55;;;;;;;14.10;85.17;96011.94;6219638;28;20417;-69
2023/09/08 09:42:28;;;;;;;3.95;3.15;;;;;;;14.10;85.20;96011.94;6218904;28;20049;-69
2023/09/08 09:45:37;;;;;;;4.00;3.28;;;;;;;14.25;85.03;96017.59;6219177;28;20133;-69
2023/09/08 09:48:41;;;;;;;5.90;3.67;;;;;;;14.23;85.17;95998.38;6218387;28;20140;-68
2023/09/08 09:51:47;;;;;;;6.63;4.45;;;;;;;14.32;84.49;96012.56;6221649;28;20053;-69
2023/09/08 09:54:53;;;;;;;4.18;3.78;;;;;;;14.27;85.11;96010.38;6223518;28;20131;-69
2023/09/08 09:58:00;;;;;;;5.40;4.90;;;;;;;14.14;85.45;96015.13;6223279;28;20057;-71
2023/09/08 10:01:05;;;;;;;4.70;3.97;;;;;;;14.09;86.12;96009.44;6223645;28;20525;-69
2023/09/08 10:04:15;;;;;;;4.93;4.00;;;;;;;14.12;86.24;96003.84;6223842;28;20041;-69
2023/09/08 10:07:19;;;;;;;3.75;3.33;;;;;;;14.12;86.14;96006.50;6223362;28;20424;-69
2023/09/08 10:10:30;;;;;;;4.53;3.97;;;;;;;14.23;86.63;95998.38;6223485;28;20045;-69
2023/09/08 10:13:40;;;;;;;4.28;3.72;;;;;;;14.33;85.86;96004.50;6223453;28;20045;-69
2023/09/08 10:16:49;;;;;;;4.35;3.53;;;;;;;14.31;85.73;96001.16;6222984;28;20540;-70
2023/09/08 10:19:56;;;;;;;5.03;3.75;;;;;;;14.25;85.70;96001.72;6223188;28;20081;-70
2023/09/08 10:23:08;;;;;;;4.95;3.90;;;;;;;14.38;84.99;96007.56;6224921;28;20061;-69
2023/09/08 10:26:16;;;;;;;8.60;4.70;;;;;;;14.47;85.67;95994.44;6223494;28;20049;-69
2023/09/08 10:29:19;;;;;;;3.42;3.13;;;;;;;14.74;85.56;96007.72;6204427;28;20049;-70
2023/09/08 10:32:22;;;;;;;3.90;3.53;;;;;;;14.78;85.03;95987.91;6221602;28;20045;-69
2023/09/08 10:35:26;;;;;;;5.32;3.70;;;;;;;14.79;85.22;95994.88;6223276;28;20493;-70
2023/09/08 10:38:35;;;;;;;3.80;3.20;;;;;;;14.86;85.07;95995.13;6223195;28;20042;-69
2023/09/08 10:41:40;;;;;;;3.63;3.13;;;;;;;14.69;84.79;95994.09;6221995;28;20460;-70
2023/09/08 10:45:04;;;;;;;3.67;2.95;;;;;;;14.53;84.74;95993.88;6222248;28;20069;-70
2023/09/08 10:48:10;;;;;;;3.42;2.33;;;;;;;14.41;85.09;95979.09;6223016;28;20045;-70
2023/09/08 10:51:23;;;;;;;2.58;2.28;;;;;;;14.32;85.34;95981.69;6205898;28;20493;-70
2023/09/08 10:54:51;;;;;;;3.85;2.33;;;;;;;14.24;85.25;95984.19;6222739;28;20045;-70
2023/09/08 10:57:54;;;;;;;4.95;2.83;;;;;;;14.26;85.75;95987.50;6204621;28;20053;-69
2023/09/08 11:01:01;;;;;;;3.80;2.33;;;;;;;14.43;85.73;95978.00;6222641;28;20049;-68
2023/09/08 11:04:10;;;;;;;4.53;2.33;;;;;;;14.56;85.47;95972.41;6221760;28;20045;-69
2023/09/08 11:07:11;;;;;;;8.55;2.78;;;;;;;14.71;85.11;95960.34;6221287;28;20053;-69
2023/09/08 11:10:15;;;;;;;4.90;2.75;;;;;;;14.82;84.86;95968.09;6221380;28;20363;-68
2023/09/08 11:13:21;;;;;;;9.00;2.78;;;;;;;14.87;84.83;95958.88;6221400;28;20057;-68
2023/09/08 11:16:29;;;;;;;3.88;2.30;;;;;;;14.71;84.83;95954.22;6221833;28;20053;-69
2023/09/08 11:19:47;;;;;;;6.78;2.88;;;;;;;14.61;85.18;95962.22;6221487;28;20061;-69
2023/09/08 11:22:51;;;;;;;7.55;3.95;;;;;;;14.45;85.32;95964.63;6221327;28;20050;-68
2023/09/08 11:25:55;;;;;;;60.92;37.85;;;;;;;14.36;85.37;95956.56;6221967;28;20049;-68
2023/09/08 11:28:59;;;;;;;7.80;5.90;;;;;;;14.28;85.48;95953.81;6221998;28;20430;-69
2023/09/08 11:32:04;;;;;;;3.00;2.65;;;;;;;14.23;84.37;95950.75;6221336;28;20046;-68
2023/09/08 11:35:09;;;;;;;2.42;2.22;;;;;;;13.98;84.92;95944.28;6220954;28;20050;-68
2023/09/08 11:38:12;;;;;;;4.35;2.72;;;;;;;13.86;85.36;95938.34;6221256;28;20054;-68
2023/09/08 11:41:23;;;;;;;8.50;5.57;;;;;;;13.88;85.84;95952.25;6221563;28;20046;-69
2023/09/08 11:44:31;;;;;;;5.57;4.22;;;;;;;13.88;85.91;95951.44;6221411;28;20150;-68
2023/09/08 11:47:34;;;;;;;4.10;2.65;;;;;;;13.76;85.50;95948.13;6220428;28;20052;-68
2023/09/08 11:50:36;;;;;;;;;;;;;;;13.70;85.53;95948.66;6220403;28;20069;-69
2023/09/08 11:53:39;;;;;;;3.42;2.50;;;;;;;13.66;85.72;95942.81;6220614;28;20398;-69
2023/09/08 11:56:42;;;;;;;2.30;2.10;;;;;;;13.61;85.57;95944.22;6220470;28;20058;-70
2023/09/08 11:59:47;;;;;;;2.67;2.20;;;;;;;13.52;86.13;95945.06;6220402;28;20057;-69
2023/09/08 12:02:54;;;;;;;1.83;1.67;;;;;;;13.57;86.28;95932.28;6220191;28;20050;-69
2023/09/08 12:05:56;;;;;;;3.78;2.83;;;;;;;13.73;86.61;95932.53;6220632;28;20050;-69
2023/09/08 12:09:02;;;;;;;3.22;2.35;;;;;;;13.97;87.29;95923.28;6219645;28;20461;-69
2023/09/08 12:12:11;;;;;;;2.08;1.88;;;;;;;14.17;87.09;95924.06;6220674;28;20046;-70
2023/09/08 12:15:32;;;;;;;4.10;2.10;;;;;;;14.32;86.96;95926.09;6219071;28;20257;-70
2023/09/08 12:18:40;;;;;;;3.97;2.80;;;;;;;14.38;87.26;95928.16;6220357;28;20093;-70
2023/09/08 12:21:56;;;;;;;14.00;9.18;;;;;;;14.44;87.09;95920.63;6202534;28;20535;-69
2023/09/08 12:25:08;;;;;;;6.75;4.22;;;;;;;14.55;87.17;95928.38;6220805;28;20490;-69
2023/09/08 12:28:10;;;;;;;6.35;3.67;;;;;;;14.78;87.50;95918.22;6220076;28;20576;-68
2023/09/08 12:31:15;;;;;;;24.60;13.93;;;;;;;15.14;87.70;95934.97;6202154;28;20088;-69
2023/09/08 12:34:20;;;;;;;13.02;9.73;;;;;;;15.41;87.28;95930.59;6220068;28;20437;-69
2023/09/08 12:37:28;;;;;;;8.00;6.15;;;;;;;15.49;86.63;95933.34;6220087;28;20054;-69
2023/09/08 12:40:35;;;;;;;5.03;3.80;;;;;;;15.51;86.21;95923.38;6219555;28;20065;-69
2023/09/08 12:43:41;;;;;;;4.82;3.75;;;;;;;15.64;85.75;95929.13;6220217;28;20041;-70
2023/09/08 12:46:47;;;;;;;3.67;2.88;;;;;;;15.57;85.39;95914.84;6220440;28;20042;-68
2023/09/08 12:49:48;;;;;;;;;;;;;;;15.54;84.71;95920.44;6218863;28;20045;-69
2023/09/08 12:52:50;;;;;;;4.90;3.72;;;;;;;15.42;85.54;95921.66;6219502;28;19921;-70
2023/09/08 12:55:53;;;;;;;5.55;4.10;;;;;;;15.31;85.54;95914.75;6219765;28;20414;-69
2023/09/08 12:58:55;;;;;;;6.20;3.80;;;;;;;15.19;85.41;95898.25;6219451;28;20058;-69
2023/09/08 13:01:59;;;;;;;9.63;7.10;;;;;;;15.17;84.15;95913.50;6219872;28;20042;-69
2023/09/08 13:05:03;;;;;;;4.47;3.70;;;;;;;15.02;84.63;95909.69;6219965;28;20045;-69
2023/09/08 13:08:11;;;;;;;6.20;4.25;;;;;;;14.95;84.83;95903.34;6219792;28;20045;-69
2023/09/08 13:11:16;;;;;;;4.60;3.30;;;;;;;14.90;85.11;95905.59;6219155;28;20057;-69
2023/09/08 13:14:18;;;;;;;5.38;3.70;;;;;;;14.89;85.05;95899.47;6219612;28;20114;-70
2023/09/08 13:17:20;;;;;;;4.88;3.63;;;;;;;14.79;84.78;95906.66;6218823;28;20045;-69
2023/09/08 13:20:22;;;;;;;5.97;4.10;;;;;;;14.66;84.67;95909.63;6219420;28;20037;-68
2023/09/08 13:23:25;;;;;;;5.20;3.90;;;;;;;14.60;85.00;95903.13;6219945;28;20517;-69
2023/09/08 13:26:29;;;;;;;4.72;3.97;;;;;;;14.58;85.25;95885.75;6221541;28;20053;-69
2023/09/08 13:29:31;;;;;;;4.82;3.55;;;;;;;14.54;85.15;95884.34;6223996;28;20065;-68
2023/09/08 13:32:35;;;;;;;4.28;3.42;;;;;;;14.53;85.53;95888.00;6223971;28;20061;-68
2023/09/08 13:35:38;;;;;;;4.55;3.60;;;;;;;14.50;85.24;95877.69;6224834;28;20156;-68
2023/09/08 13:38:39;;;;;;;3.60;3.25;;;;;;;14.46;85.33;95881.59;6223749;28;20064;-70
2023/09/08 13:41:52;;;;;;;4.28;3.40;;;;;;;14.41;85.45;95878.53;6223699;28;20428;-68
2023/09/08 13:44:56;;;;;;;6.50;5.47;;;;;;;14.44;85.73;95883.56;6206985;28;20428;-68
2023/09/08 13:47:57;;;;;;;;;;;;;;;14.42;85.71;95877.56;6224227;28;20449;-68
2023/09/08 13:51:04;;;;;;;4.10;3.63;;;;;;;14.42;85.71;95864.34;6223412;28;19944;-68
2023/09/08 13:54:09;;;;;;;5.57;4.20;;;;;;;14.37;85.82;95870.91;6223352;28;20057;-69
2023/09/08 13:57:13;;;;;;;7.63;4.80;;;;;;;14.34;85.90;95857.97;6223265;28;20064;-69
2023/09/08 14:00:15;;;;;;;13.43;6.18;;;;;;;14.35;85.98;95853.50;6223695;28;20056;-69
2023/09/08 14:03:19;;;;;;;9.98;5.28;;;;;;;14.32;85.95;95865.25;6222548;28;20057;-69
2023/09/08 14:06:24;;;;;;;7.97;5.00;;;;;;;14.29;85.90;95854.91;6222667;28;20517;-69
2023/09/08 14:09:28;;;;;;;10.75;4.35;;;;;;;14.32;86.19;95854.66;6223066;28;20053;-69
2023/09/08 14:12:35;;;;;;;7.30;4.88;;;;;;;14.28;86.19;95853.25;6223833;28;20050;-69
2023/09/08 14:15:37;;;;;;;6.50;3.53;;;;;;;14.32;86.32;95865.25;6223245;28;20061;-68
2023/09/08 14:18:41;;;;;;;4.47;3.67;;;;;;;14.34;86.35;95871.19;6223459;28;20050;-70
2023/09/08 14:21:47;;;;;;;5.40;3.60;;;;;;;14.33;86.17;95869.53;6223701;28;20054;-69
2023/09/08 14:24:50;;;;;;;5.82;4.20;;;;;;;14.31;86.00;95874.13;6222260;28;20046;-69
2023/09/08 14:27:52;;;;;;;10.77;7.75;;;;;;;14.29;86.05;95876.09;6222889;28;20054;-69
2023/09/08 14:30:53;;;;;;;5.53;4.75;;;;;;;14.25;86.27;95864.16;6222308;28;20060;-69
2023/09/08 14:34:01;;;;;;;6.70;4.70;;;;;;;14.23;86.23;95875.84;6223003;28;20058;-69